sensor_id;sensor_type;location;lat;lon;timestamp;temperature;humidity
47532;DHT22;33273;52.254;7.988;2023-04-03T00:00:23;2.80;72.60
47532;DHT22;33273;52.254;7.988;2023-04-03T00:02:49;2.70;72.60
47532;DHT22;33273;52.254;7.988;2023-04-03T00:05:15;2.70;72.00
47532;DHT22;33273;52.254;7.988;2023-04-03T00:07:42;2.70;71.00
47532;DHT22;33273;52.254;7.988;2023-04-03T00:10:08;2.60;69.50
47532;DHT22;33273;52.254;7.988;2023-04-03T00:12:34;2.60;68.60
47532;DHT22;33273;52.254;7.988;2023-04-03T00:15:01;2.60;67.50
47532;DHT22;33273;52.254;7.988;2023-04-03T00:17:28;2.60;66.60
47532;DHT22;33273;52.254;7.988;2023-04-03T00:19:54;2.60;66.60
47532;DHT22;33273;52.254;7.988;2023-04-03T00:22:20;2.50;65.80
47532;DHT22;33273;52.254;7.988;2023-04-03T00:24:49;2.50;65.70
47532;DHT22;33273;52.254;7.988;2023-04-03T00:27:16;2.40;64.30
47532;DHT22;33273;52.254;7.988;2023-04-03T00:29:42;2.40;63.70
47532;DHT22;33273;52.254;7.988;2023-04-03T00:32:09;2.40;63.70
47532;DHT22;33273;52.254;7.988;2023-04-03T00:34:35;2.40;64.00
47532;DHT22;33273;52.254;7.988;2023-04-03T00:37:01;2.30;64.10
47532;DHT22;33273;52.254;7.988;2023-04-03T00:39:27;2.20;64.30
47532;DHT22;33273;52.254;7.988;2023-04-03T00:41:53;2.20;64.30
47532;DHT22;33273;52.254;7.988;2023-04-03T00:46:47;2.10;64.70
47532;DHT22;33273;52.254;7.988;2023-04-03T00:49:13;2.00;65.00
47532;DHT22;33273;52.254;7.988;2023-04-03T00:51:40;2.10;64.80
47532;DHT22;33273;52.254;7.988;2023-04-03T00:54:07;2.00;64.90
47532;DHT22;33273;52.254;7.988;2023-04-03T00:56:38;2.00;65.00
47532;DHT22;33273;52.254;7.988;2023-04-03T00:59:13;2.00;65.00
47532;DHT22;33273;52.254;7.988;2023-04-03T01:01:42;1.90;65.20
47532;DHT22;33273;52.254;7.988;2023-04-03T01:04:30;2.00;65.30
47532;DHT22;33273;52.254;7.988;2023-04-03T01:07:02;1.90;65.00
47532;DHT22;33273;52.254;7.988;2023-04-03T01:09:30;1.90;65.00
47532;DHT22;33273;52.254;7.988;2023-04-03T01:14:42;1.80;64.40
47532;DHT22;33273;52.254;7.988;2023-04-03T01:25:48;1.70;64.60
47532;DHT22;33273;52.254;7.988;2023-04-03T01:28:24;1.70;64.90
47532;DHT22;33273;52.254;7.988;2023-04-03T01:31:18;1.60;64.90
47532;DHT22;33273;52.254;7.988;2023-04-03T01:33:47;1.60;65.30
47532;DHT22;33273;52.254;7.988;2023-04-03T01:36:19;1.60;65.40
47532;DHT22;33273;52.254;7.988;2023-04-03T01:38:46;1.60;65.90
47532;DHT22;33273;52.254;7.988;2023-04-03T01:41:12;1.50;66.60
47532;DHT22;33273;52.254;7.988;2023-04-03T01:43:39;1.50;66.80
47532;DHT22;33273;52.254;7.988;2023-04-03T01:46:05;1.40;67.10
47532;DHT22;33273;52.254;7.988;2023-04-03T01:48:32;1.40;67.50
47532;DHT22;33273;52.254;7.988;2023-04-03T01:50:58;1.30;68.30
47532;DHT22;33273;52.254;7.988;2023-04-03T01:53:24;1.30;69.40
47532;DHT22;33273;52.254;7.988;2023-04-03T01:55:50;1.30;69.60
47532;DHT22;33273;52.254;7.988;2023-04-03T01:58:16;1.30;69.50
47532;DHT22;33273;52.254;7.988;2023-04-03T02:00:42;1.30;69.60
47532;DHT22;33273;52.254;7.988;2023-04-03T02:03:08;1.20;69.90
47532;DHT22;33273;52.254;7.988;2023-04-03T02:05:34;1.20;70.00
47532;DHT22;33273;52.254;7.988;2023-04-03T02:08:03;1.20;70.10
47532;DHT22;33273;52.254;7.988;2023-04-03T02:10:28;1.10;70.50
47532;DHT22;33273;52.254;7.988;2023-04-03T02:12:56;1.10;70.50
47532;DHT22;33273;52.254;7.988;2023-04-03T02:15:22;1.00;70.50
47532;DHT22;33273;52.254;7.988;2023-04-03T02:17:47;1.00;71.00
47532;DHT22;33273;52.254;7.988;2023-04-03T02:20:13;0.90;71.10
47532;DHT22;33273;52.254;7.988;2023-04-03T02:22:40;0.90;71.20
47532;DHT22;33273;52.254;7.988;2023-04-03T02:25:06;0.90;71.50
47532;DHT22;33273;52.254;7.988;2023-04-03T02:27:32;0.90;71.50
47532;DHT22;33273;52.254;7.988;2023-04-03T02:29:58;0.80;71.20
47532;DHT22;33273;52.254;7.988;2023-04-03T02:32:24;0.70;72.00
47532;DHT22;33273;52.254;7.988;2023-04-03T02:34:50;0.70;71.60
47532;DHT22;33273;52.254;7.988;2023-04-03T02:37:17;0.70;71.70
47532;DHT22;33273;52.254;7.988;2023-04-03T02:39:47;0.70;72.10
47532;DHT22;33273;52.254;7.988;2023-04-03T02:42:13;0.70;71.90
47532;DHT22;33273;52.254;7.988;2023-04-03T02:44:39;0.60;71.90
47532;DHT22;33273;52.254;7.988;2023-04-03T02:47:05;0.60;71.90
47532;DHT22;33273;52.254;7.988;2023-04-03T02:49:32;0.60;71.90
47532;DHT22;33273;52.254;7.988;2023-04-03T02:51:58;0.50;72.10
47532;DHT22;33273;52.254;7.988;2023-04-03T02:54:24;0.50;72.30
47532;DHT22;33273;52.254;7.988;2023-04-03T02:56:55;0.50;72.40
47532;DHT22;33273;52.254;7.988;2023-04-03T02:59:21;0.40;72.50
47532;DHT22;33273;52.254;7.988;2023-04-03T03:01:48;0.40;72.60
47532;DHT22;33273;52.254;7.988;2023-04-03T03:04:14;0.40;72.70
47532;DHT22;33273;52.254;7.988;2023-04-03T03:06:40;0.30;72.90
47532;DHT22;33273;52.254;7.988;2023-04-03T03:09:07;0.30;72.80
47532;DHT22;33273;52.254;7.988;2023-04-03T03:11:33;0.30;72.60
47532;DHT22;33273;52.254;7.988;2023-04-03T03:13:59;0.30;72.50
47532;DHT22;33273;52.254;7.988;2023-04-03T03:16:25;0.30;72.30
47532;DHT22;33273;52.254;7.988;2023-04-03T03:18:51;0.20;72.40
47532;DHT22;33273;52.254;7.988;2023-04-03T03:21:18;0.20;72.30
47532;DHT22;33273;52.254;7.988;2023-04-03T03:23:44;0.20;72.40
47532;DHT22;33273;52.254;7.988;2023-04-03T03:26:11;0.10;72.40
47532;DHT22;33273;52.254;7.988;2023-04-03T03:28:37;0.20;72.10
47532;DHT22;33273;52.254;7.988;2023-04-03T03:31:05;0.10;72.10
47532;DHT22;33273;52.254;7.988;2023-04-03T03:33:32;0.10;72.10
47532;DHT22;33273;52.254;7.988;2023-04-03T03:35:59;0.10;72.00
47532;DHT22;33273;52.254;7.988;2023-04-03T03:38:25;0.10;72.30
47532;DHT22;33273;52.254;7.988;2023-04-03T03:40:53;0.00;72.10
47532;DHT22;33273;52.254;7.988;2023-04-03T03:43:20;0.10;71.90
47532;DHT22;33273;52.254;7.988;2023-04-03T03:45:52;0.10;72.20
47532;DHT22;33273;52.254;7.988;2023-04-03T03:48:19;0.00;71.90
47532;DHT22;33273;52.254;7.988;2023-04-03T03:50:45;0.00;71.80
47532;DHT22;33273;52.254;7.988;2023-04-03T03:53:12;0.00;72.00
47532;DHT22;33273;52.254;7.988;2023-04-03T03:55:39;0.00;72.10
47532;DHT22;33273;52.254;7.988;2023-04-03T03:58:06;-0.10;72.60
47532;DHT22;33273;52.254;7.988;2023-04-03T04:00:33;-0.10;72.60
47532;DHT22;33273;52.254;7.988;2023-04-03T04:03:00;-0.20;72.60
47532;DHT22;33273;52.254;7.988;2023-04-03T04:05:27;-0.20;73.00
47532;DHT22;33273;52.254;7.988;2023-04-03T04:07:54;-0.20;73.50
47532;DHT22;33273;52.254;7.988;2023-04-03T04:10:27;-0.20;74.00
47532;DHT22;33273;52.254;7.988;2023-04-03T04:12:53;-0.30;74.30
47532;DHT22;33273;52.254;7.988;2023-04-03T04:15:23;-0.30;75.30
47532;DHT22;33273;52.254;7.988;2023-04-03T04:17:51;-0.30;75.50
47532;DHT22;33273;52.254;7.988;2023-04-03T04:20:17;-0.30;75.90
47532;DHT22;33273;52.254;7.988;2023-04-03T04:22:46;-0.30;76.90
47532;DHT22;33273;52.254;7.988;2023-04-03T04:25:12;-0.30;77.50
47532;DHT22;33273;52.254;7.988;2023-04-03T04:27:40;-0.30;78.10
47532;DHT22;33273;52.254;7.988;2023-04-03T04:30:07;-0.40;78.30
47532;DHT22;33273;52.254;7.988;2023-04-03T04:32:33;-0.40;79.30
47532;DHT22;33273;52.254;7.988;2023-04-03T04:35:01;-0.50;79.10
47532;DHT22;33273;52.254;7.988;2023-04-03T04:37:29;-0.50;80.40
47532;DHT22;33273;52.254;7.988;2023-04-03T04:39:56;-0.50;80.80
47532;DHT22;33273;52.254;7.988;2023-04-03T04:42:23;-0.50;81.40
47532;DHT22;33273;52.254;7.988;2023-04-03T04:44:50;-0.40;81.20
47532;DHT22;33273;52.254;7.988;2023-04-03T04:47:16;-0.40;81.20
47532;DHT22;33273;52.254;7.988;2023-04-03T04:49:42;-0.50;82.00
47532;DHT22;33273;52.254;7.988;2023-04-03T04:52:08;-0.50;81.20
47532;DHT22;33273;52.254;7.988;2023-04-03T04:54:35;-0.60;81.50
47532;DHT22;33273;52.254;7.988;2023-04-03T04:57:02;-0.60;81.60
47532;DHT22;33273;52.254;7.988;2023-04-03T04:59:29;-0.60;81.90
47532;DHT22;33273;52.254;7.988;2023-04-03T05:01:58;-0.60;82.00
47532;DHT22;33273;52.254;7.988;2023-04-03T05:04:25;-0.60;81.80
47532;DHT22;33273;52.254;7.988;2023-04-03T05:06:56;-0.60;81.90
47532;DHT22;33273;52.254;7.988;2023-04-03T05:09:26;-0.60;81.80
47532;DHT22;33273;52.254;7.988;2023-04-03T05:11:52;-0.70;81.80
47532;DHT22;33273;52.254;7.988;2023-04-03T05:14:23;-0.60;81.70
47532;DHT22;33273;52.254;7.988;2023-04-03T05:16:49;-0.70;81.60
47532;DHT22;33273;52.254;7.988;2023-04-03T05:19:19;-0.60;82.20
47532;DHT22;33273;52.254;7.988;2023-04-03T05:21:46;-0.50;83.50
47532;DHT22;33273;52.254;7.988;2023-04-03T05:24:15;-0.30;84.40
47532;DHT22;33273;52.254;7.988;2023-04-03T05:26:43;-0.10;83.10
47532;DHT22;33273;52.254;7.988;2023-04-03T05:29:11;0.00;81.00
47532;DHT22;33273;52.254;7.988;2023-04-03T05:31:37;0.20;80.00
47532;DHT22;33273;52.254;7.988;2023-04-03T05:34:04;0.30;77.00
47532;DHT22;33273;52.254;7.988;2023-04-03T05:36:33;0.30;75.60
47532;DHT22;33273;52.254;7.988;2023-04-03T05:39:03;0.40;74.30
47532;DHT22;33273;52.254;7.988;2023-04-03T05:41:30;0.40;74.60
47532;DHT22;33273;52.254;7.988;2023-04-03T05:43:56;0.90;80.10
47532;DHT22;33273;52.254;7.988;2023-04-03T05:46:24;1.20;74.50
47532;DHT22;33273;52.254;7.988;2023-04-03T05:48:56;1.40;70.20
47532;DHT22;33273;52.254;7.988;2023-04-03T05:51:28;1.50;68.50
47532;DHT22;33273;52.254;7.988;2023-04-03T05:54:29;2.10;70.90
47532;DHT22;33273;52.254;7.988;2023-04-03T05:57:08;2.50;62.80
47532;DHT22;33273;52.254;7.988;2023-04-03T05:59:34;2.60;62.20
47532;DHT22;33273;52.254;7.988;2023-04-03T06:02:02;2.70;60.00
47532;DHT22;33273;52.254;7.988;2023-04-03T06:04:30;3.10;60.40
47532;DHT22;33273;52.254;7.988;2023-04-03T06:06:57;3.60;61.10
47532;DHT22;33273;52.254;7.988;2023-04-03T06:09:27;3.70;52.20
47532;DHT22;33273;52.254;7.988;2023-04-03T06:11:56;3.80;53.90
47532;DHT22;33273;52.254;7.988;2023-04-03T06:14:25;3.80;51.60
47532;DHT22;33273;52.254;7.988;2023-04-03T06:16:52;4.20;52.60
47532;DHT22;33273;52.254;7.988;2023-04-03T06:19:19;4.40;50.30
47532;DHT22;33273;52.254;7.988;2023-04-03T06:21:49;4.40;48.30
47532;DHT22;33273;52.254;7.988;2023-04-03T06:24:17;3.70;47.70
47532;DHT22;33273;52.254;7.988;2023-04-03T06:26:43;3.70;50.20
47532;DHT22;33273;52.254;7.988;2023-04-03T06:29:09;3.80;50.40
47532;DHT22;33273;52.254;7.988;2023-04-03T06:31:35;3.70;50.70
47532;DHT22;33273;52.254;7.988;2023-04-03T06:34:03;4.10;50.10
47532;DHT22;33273;52.254;7.988;2023-04-03T06:36:29;3.60;49.50
47532;DHT22;33273;52.254;7.988;2023-04-03T06:38:55;3.90;50.00
47532;DHT22;33273;52.254;7.988;2023-04-03T06:41:21;4.30;53.00
47532;DHT22;33273;52.254;7.988;2023-04-03T06:43:47;4.30;47.50
47532;DHT22;33273;52.254;7.988;2023-04-03T06:46:21;4.00;49.00
47532;DHT22;33273;52.254;7.988;2023-04-03T06:48:48;3.70;49.10
47532;DHT22;33273;52.254;7.988;2023-04-03T06:51:25;3.70;49.20
47532;DHT22;33273;52.254;7.988;2023-04-03T06:53:53;3.60;49.70
47532;DHT22;33273;52.254;7.988;2023-04-03T06:56:20;3.60;50.40
47532;DHT22;33273;52.254;7.988;2023-04-03T06:58:46;3.50;49.50
47532;DHT22;33273;52.254;7.988;2023-04-03T07:01:14;3.60;49.90
47532;DHT22;33273;52.254;7.988;2023-04-03T07:03:40;3.80;51.60
47532;DHT22;33273;52.254;7.988;2023-04-03T07:06:09;3.90;47.90
47532;DHT22;33273;52.254;7.988;2023-04-03T07:08:36;3.80;48.00
47532;DHT22;33273;52.254;7.988;2023-04-03T07:11:02;3.70;47.70
47532;DHT22;33273;52.254;7.988;2023-04-03T07:13:28;3.70;47.60
47532;DHT22;33273;52.254;7.988;2023-04-03T07:15:54;3.60;45.60
47532;DHT22;33273;52.254;7.988;2023-04-03T07:18:20;3.50;46.70
47532;DHT22;33273;52.254;7.988;2023-04-03T07:20:47;3.40;47.30
47532;DHT22;33273;52.254;7.988;2023-04-03T07:23:13;3.30;47.50
47532;DHT22;33273;52.254;7.988;2023-04-03T07:25:43;3.20;46.90
47532;DHT22;33273;52.254;7.988;2023-04-03T07:28:10;2.90;47.80
47532;DHT22;33273;52.254;7.988;2023-04-03T07:30:47;3.00;47.70
47532;DHT22;33273;52.254;7.988;2023-04-03T07:33:15;2.80;47.00
47532;DHT22;33273;52.254;7.988;2023-04-03T07:35:42;2.90;47.80
47532;DHT22;33273;52.254;7.988;2023-04-03T07:38:09;2.80;46.90
47532;DHT22;33273;52.254;7.988;2023-04-03T07:40:35;2.80;46.50
47532;DHT22;33273;52.254;7.988;2023-04-03T07:43:01;2.80;46.00
47532;DHT22;33273;52.254;7.988;2023-04-03T07:45:28;2.80;45.70
47532;DHT22;33273;52.254;7.988;2023-04-03T07:47:53;3.00;46.60
47532;DHT22;33273;52.254;7.988;2023-04-03T07:50:19;2.90;45.30
47532;DHT22;33273;52.254;7.988;2023-04-03T07:52:45;3.00;45.60
47532;DHT22;33273;52.254;7.988;2023-04-03T07:55:12;3.10;45.10
47532;DHT22;33273;52.254;7.988;2023-04-03T07:57:37;3.10;44.00
47532;DHT22;33273;52.254;7.988;2023-04-03T08:00:19;3.20;43.70
47532;DHT22;33273;52.254;7.988;2023-04-03T08:02:45;3.30;43.00
47532;DHT22;33273;52.254;7.988;2023-04-03T08:05:20;3.40;41.70
47532;DHT22;33273;52.254;7.988;2023-04-03T08:07:50;3.40;41.50
47532;DHT22;33273;52.254;7.988;2023-04-03T08:10:16;3.50;42.60
47532;DHT22;33273;52.254;7.988;2023-04-03T08:12:42;3.50;41.50
47532;DHT22;33273;52.254;7.988;2023-04-03T08:15:08;3.70;41.60
47532;DHT22;33273;52.254;7.988;2023-04-03T08:17:34;3.70;39.40
47532;DHT22;33273;52.254;7.988;2023-04-03T08:20:01;3.80;39.60
47532;DHT22;33273;52.254;7.988;2023-04-03T08:22:28;3.80;39.10
47532;DHT22;33273;52.254;7.988;2023-04-03T08:24:55;3.90;38.80
47532;DHT22;33273;52.254;7.988;2023-04-03T08:27:20;4.00;36.10
47532;DHT22;33273;52.254;7.988;2023-04-03T08:29:46;4.00;37.10
47532;DHT22;33273;52.254;7.988;2023-04-03T08:32:12;4.10;37.30
47532;DHT22;33273;52.254;7.988;2023-04-03T08:34:38;4.20;34.10
47532;DHT22;33273;52.254;7.988;2023-04-03T08:37:05;4.20;33.70
47532;DHT22;33273;52.254;7.988;2023-04-03T08:39:32;4.20;35.90
47532;DHT22;33273;52.254;7.988;2023-04-03T08:42:00;4.30;36.80
47532;DHT22;33273;52.254;7.988;2023-04-03T08:47:23;4.30;35.70
47532;DHT22;33273;52.254;7.988;2023-04-03T08:50:01;4.30;35.70
47532;DHT22;33273;52.254;7.988;2023-04-03T08:52:50;4.40;36.70
47532;DHT22;33273;52.254;7.988;2023-04-03T08:55:33;4.50;37.40
47532;DHT22;33273;52.254;7.988;2023-04-03T08:58:11;4.40;37.40
47532;DHT22;33273;52.254;7.988;2023-04-03T09:00:47;4.50;38.70
47532;DHT22;33273;52.254;7.988;2023-04-03T09:03:19;4.60;37.80
47532;DHT22;33273;52.254;7.988;2023-04-03T09:10:41;4.60;36.00
47532;DHT22;33273;52.254;7.988;2023-04-03T09:15:51;4.50;36.40
47532;DHT22;33273;52.254;7.988;2023-04-03T09:18:30;4.40;36.50
47532;DHT22;33273;52.254;7.988;2023-04-03T09:23:47;4.40;36.60
47532;DHT22;33273;52.254;7.988;2023-04-03T09:28:54;4.50;37.90
47532;DHT22;33273;52.254;7.988;2023-04-03T09:31:26;4.60;37.50
47532;DHT22;33273;52.254;7.988;2023-04-03T09:33:59;4.50;36.30
47532;DHT22;33273;52.254;7.988;2023-04-03T09:36:47;4.50;37.40
47532;DHT22;33273;52.254;7.988;2023-04-03T09:39:21;4.60;37.10
47532;DHT22;33273;52.254;7.988;2023-04-03T09:42:01;4.70;37.40
47532;DHT22;33273;52.254;7.988;2023-04-03T09:44:34;4.80;37.10
47532;DHT22;33273;52.254;7.988;2023-04-03T09:47:32;4.80;36.40
47532;DHT22;33273;52.254;7.988;2023-04-03T09:50:20;4.90;36.40
47532;DHT22;33273;52.254;7.988;2023-04-03T09:52:51;4.80;36.20
47532;DHT22;33273;52.254;7.988;2023-04-03T09:55:23;4.80;35.90
47532;DHT22;33273;52.254;7.988;2023-04-03T09:58:04;4.90;36.70
47532;DHT22;33273;52.254;7.988;2023-04-03T10:00:36;4.80;34.20
47532;DHT22;33273;52.254;7.988;2023-04-03T10:03:03;4.90;36.40
47532;DHT22;33273;52.254;7.988;2023-04-03T10:08:19;5.10;34.90
47532;DHT22;33273;52.254;7.988;2023-04-03T10:10:48;5.10;34.80
47532;DHT22;33273;52.254;7.988;2023-04-03T10:16:08;5.30;35.00
47532;DHT22;33273;52.254;7.988;2023-04-03T10:18:40;5.40;33.80
47532;DHT22;33273;52.254;7.988;2023-04-03T10:26:41;5.60;33.60
47532;DHT22;33273;52.254;7.988;2023-04-03T10:32:02;5.60;33.60
47532;DHT22;33273;52.254;7.988;2023-04-03T10:34:39;5.70;34.10
47532;DHT22;33273;52.254;7.988;2023-04-03T10:37:24;5.90;34.70
47532;DHT22;33273;52.254;7.988;2023-04-03T10:42:46;6.00;32.80
47532;DHT22;33273;52.254;7.988;2023-04-03T10:45:30;5.80;33.50
47532;DHT22;33273;52.254;7.988;2023-04-03T10:50:49;5.60;32.70
47532;DHT22;33273;52.254;7.988;2023-04-03T10:53:22;5.60;33.20
47532;DHT22;33273;52.254;7.988;2023-04-03T10:58:43;5.60;32.00
47532;DHT22;33273;52.254;7.988;2023-04-03T11:01:13;5.50;31.70
47532;DHT22;33273;52.254;7.988;2023-04-03T11:03:49;5.40;32.30
47532;DHT22;33273;52.254;7.988;2023-04-03T11:06:17;5.40;32.60
47532;DHT22;33273;52.254;7.988;2023-04-03T11:11:33;5.50;32.30
47532;DHT22;33273;52.254;7.988;2023-04-03T11:16:50;5.70;31.70
47532;DHT22;33273;52.254;7.988;2023-04-03T11:19:35;5.90;31.60
47532;DHT22;33273;52.254;7.988;2023-04-03T11:22:13;6.00;30.40
47532;DHT22;33273;52.254;7.988;2023-04-03T11:24:43;5.90;29.90
47532;DHT22;33273;52.254;7.988;2023-04-03T11:27:17;5.90;29.90
47532;DHT22;33273;52.254;7.988;2023-04-03T11:29:46;5.90;29.60
47532;DHT22;33273;52.254;7.988;2023-04-03T11:34:52;6.00;30.50
47532;DHT22;33273;52.254;7.988;2023-04-03T11:37:33;6.10;29.90
47532;DHT22;33273;52.254;7.988;2023-04-03T11:40:08;6.00;29.90
47532;DHT22;33273;52.254;7.988;2023-04-03T11:50:45;6.10;30.70
47532;DHT22;33273;52.254;7.988;2023-04-03T11:58:34;6.70;29.90
47532;DHT22;33273;52.254;7.988;2023-04-03T12:01:11;7.00;30.40
47532;DHT22;33273;52.254;7.988;2023-04-03T12:04:06;7.20;29.60
47532;DHT22;33273;52.254;7.988;2023-04-03T12:08:58;7.00;29.50
47532;DHT22;33273;52.254;7.988;2023-04-03T12:11:29;6.90;30.10
47532;DHT22;33273;52.254;7.988;2023-04-03T12:16:43;7.00;31.40
47532;DHT22;33273;52.254;7.988;2023-04-03T12:24:35;7.10;29.90
47532;DHT22;33273;52.254;7.988;2023-04-03T12:29:50;7.10;28.70
47532;DHT22;33273;52.254;7.988;2023-04-03T12:44:00;7.50;27.80
47532;DHT22;33273;52.254;7.988;2023-04-03T12:46:37;7.60;28.70
47532;DHT22;33273;52.254;7.988;2023-04-03T12:49:17;7.60;28.00
47532;DHT22;33273;52.254;7.988;2023-04-03T12:51:46;7.50;28.10
47532;DHT22;33273;52.254;7.988;2023-04-03T12:54:19;7.20;28.50
47532;DHT22;33273;52.254;7.988;2023-04-03T12:56:47;7.00;28.50
47532;DHT22;33273;52.254;7.988;2023-04-03T13:01:41;6.90;28.80
47532;DHT22;33273;52.254;7.988;2023-04-03T13:04:10;7.00;28.50
47532;DHT22;33273;52.254;7.988;2023-04-03T13:06:42;7.00;27.80
47532;DHT22;33273;52.254;7.988;2023-04-03T13:09:23;7.00;28.30
47532;DHT22;33273;52.254;7.988;2023-04-03T13:14:23;6.70;28.80
47532;DHT22;33273;52.254;7.988;2023-04-03T13:19:38;6.70;29.10
47532;DHT22;33273;52.254;7.988;2023-04-03T13:22:33;6.70;28.70
47532;DHT22;33273;52.254;7.988;2023-04-03T13:25:07;6.70;29.10
47532;DHT22;33273;52.254;7.988;2023-04-03T13:27:35;6.60;29.40
47532;DHT22;33273;52.254;7.988;2023-04-03T13:30:03;6.60;29.70
47532;DHT22;33273;52.254;7.988;2023-04-03T13:32:30;6.70;29.60
47532;DHT22;33273;52.254;7.988;2023-04-03T13:34:57;6.70;28.90
47532;DHT22;33273;52.254;7.988;2023-04-03T13:42:30;6.90;28.60
47532;DHT22;33273;52.254;7.988;2023-04-03T13:45:21;6.90;28.20
47532;DHT22;33273;52.254;7.988;2023-04-03T13:47:50;6.90;28.40
47532;DHT22;33273;52.254;7.988;2023-04-03T13:50:25;6.90;28.50
47532;DHT22;33273;52.254;7.988;2023-04-03T13:52:55;7.00;27.90
47532;DHT22;33273;52.254;7.988;2023-04-03T13:55:29;7.10;27.10
47532;DHT22;33273;52.254;7.988;2023-04-03T13:58:03;7.20;27.60
47532;DHT22;33273;52.254;7.988;2023-04-03T14:00:35;7.40;27.90
47532;DHT22;33273;52.254;7.988;2023-04-03T14:03:13;7.60;28.00
47532;DHT22;33273;52.254;7.988;2023-04-03T14:05:40;7.60;26.70
47532;DHT22;33273;52.254;7.988;2023-04-03T14:08:06;7.50;27.90
47532;DHT22;33273;52.254;7.988;2023-04-03T14:10:34;7.50;28.40
47532;DHT22;33273;52.254;7.988;2023-04-03T14:13:00;7.40;26.40
47532;DHT22;33273;52.254;7.988;2023-04-03T14:15:28;7.20;25.80
47532;DHT22;33273;52.254;7.988;2023-04-03T14:17:55;7.00;27.00
47532;DHT22;33273;52.254;7.988;2023-04-03T14:20:24;6.90;27.50
47532;DHT22;33273;52.254;7.988;2023-04-03T14:22:52;7.00;26.70
47532;DHT22;33273;52.254;7.988;2023-04-03T14:25:19;7.10;27.50
47532;DHT22;33273;52.254;7.988;2023-04-03T14:27:48;7.20;28.10
47532;DHT22;33273;52.254;7.988;2023-04-03T14:30:23;7.40;28.20
47532;DHT22;33273;52.254;7.988;2023-04-03T14:32:52;7.50;27.20
47532;DHT22;33273;52.254;7.988;2023-04-03T14:35:19;7.60;26.60
47532;DHT22;33273;52.254;7.988;2023-04-03T14:37:46;7.60;26.30
47532;DHT22;33273;52.254;7.988;2023-04-03T14:40:19;7.60;27.00
47532;DHT22;33273;52.254;7.988;2023-04-03T14:42:45;7.60;26.40
47532;DHT22;33273;52.254;7.988;2023-04-03T14:45:13;7.70;27.30
47532;DHT22;33273;52.254;7.988;2023-04-03T14:47:48;7.80;26.80
47532;DHT22;33273;52.254;7.988;2023-04-03T14:50:17;7.90;27.00
47532;DHT22;33273;52.254;7.988;2023-04-03T14:52:44;7.90;27.10
47532;DHT22;33273;52.254;7.988;2023-04-03T14:55:13;7.70;27.10
47532;DHT22;33273;52.254;7.988;2023-04-03T14:57:44;7.60;27.30
47532;DHT22;33273;52.254;7.988;2023-04-03T15:00:15;7.50;28.10
47532;DHT22;33273;52.254;7.988;2023-04-03T15:02:41;7.50;27.40
47532;DHT22;33273;52.254;7.988;2023-04-03T15:05:09;7.40;27.50
47532;DHT22;33273;52.254;7.988;2023-04-03T15:07:41;7.30;27.60
47532;DHT22;33273;52.254;7.988;2023-04-03T15:12:37;7.20;28.00
47532;DHT22;33273;52.254;7.988;2023-04-03T15:15:03;7.20;27.40
47532;DHT22;33273;52.254;7.988;2023-04-03T15:17:30;7.30;27.70
47532;DHT22;33273;52.254;7.988;2023-04-03T15:19:56;7.40;27.00
47532;DHT22;33273;52.254;7.988;2023-04-03T15:22:23;7.50;26.30
47532;DHT22;33273;52.254;7.988;2023-04-03T15:24:49;7.60;26.60
47532;DHT22;33273;52.254;7.988;2023-04-03T15:27:15;7.60;25.80
47532;DHT22;33273;52.254;7.988;2023-04-03T15:29:42;7.60;26.30
47532;DHT22;33273;52.254;7.988;2023-04-03T15:32:09;7.60;25.50
47532;DHT22;33273;52.254;7.988;2023-04-03T15:34:35;7.60;26.70
47532;DHT22;33273;52.254;7.988;2023-04-03T15:37:01;7.60;26.20
47532;DHT22;33273;52.254;7.988;2023-04-03T15:39:27;7.50;25.80
47532;DHT22;33273;52.254;7.988;2023-04-03T15:41:54;7.60;26.40
47532;DHT22;33273;52.254;7.988;2023-04-03T15:44:20;7.60;26.50
47532;DHT22;33273;52.254;7.988;2023-04-03T15:46:47;7.50;26.20
47532;DHT22;33273;52.254;7.988;2023-04-03T15:49:18;7.40;26.30
47532;DHT22;33273;52.254;7.988;2023-04-03T15:51:45;7.50;26.60
47532;DHT22;33273;52.254;7.988;2023-04-03T15:54:14;7.40;26.80
47532;DHT22;33273;52.254;7.988;2023-04-03T15:56:40;7.40;26.90
47532;DHT22;33273;52.254;7.988;2023-04-03T15:59:06;7.40;26.60
47532;DHT22;33273;52.254;7.988;2023-04-03T16:01:33;7.40;26.40
47532;DHT22;33273;52.254;7.988;2023-04-03T16:03:59;7.30;26.70
47532;DHT22;33273;52.254;7.988;2023-04-03T16:06:27;7.30;26.40
47532;DHT22;33273;52.254;7.988;2023-04-03T16:08:56;7.20;26.80
47532;DHT22;33273;52.254;7.988;2023-04-03T16:11:26;7.10;26.90
47532;DHT22;33273;52.254;7.988;2023-04-03T16:13:53;7.00;26.30
47532;DHT22;33273;52.254;7.988;2023-04-03T16:16:18;7.00;26.50
47532;DHT22;33273;52.254;7.988;2023-04-03T16:18:46;7.00;26.70
47532;DHT22;33273;52.254;7.988;2023-04-03T16:21:13;7.10;26.70
47532;DHT22;33273;52.254;7.988;2023-04-03T16:23:41;7.10;26.40
47532;DHT22;33273;52.254;7.988;2023-04-03T16:26:07;7.10;26.20
47532;DHT22;33273;52.254;7.988;2023-04-03T16:28:36;7.20;26.70
47532;DHT22;33273;52.254;7.988;2023-04-03T16:31:02;7.20;26.80
47532;DHT22;33273;52.254;7.988;2023-04-03T16:33:29;7.20;27.00
47532;DHT22;33273;52.254;7.988;2023-04-03T16:35:55;7.20;26.80
47532;DHT22;33273;52.254;7.988;2023-04-03T16:38:22;7.30;27.40
47532;DHT22;33273;52.254;7.988;2023-04-03T16:40:49;7.30;26.50
47532;DHT22;33273;52.254;7.988;2023-04-03T16:43:16;7.30;27.50
47532;DHT22;33273;52.254;7.988;2023-04-03T16:45:43;7.20;26.30
47532;DHT22;33273;52.254;7.988;2023-04-03T16:48:09;7.20;26.70
47532;DHT22;33273;52.254;7.988;2023-04-03T16:50:35;7.20;26.60
47532;DHT22;33273;52.254;7.988;2023-04-03T16:53:00;7.20;26.60
47532;DHT22;33273;52.254;7.988;2023-04-03T16:55:28;7.20;26.50
47532;DHT22;33273;52.254;7.988;2023-04-03T16:57:54;7.10;26.30
47532;DHT22;33273;52.254;7.988;2023-04-03T17:00:21;7.10;26.80
47532;DHT22;33273;52.254;7.988;2023-04-03T17:02:49;7.00;26.60
47532;DHT22;33273;52.254;7.988;2023-04-03T17:05:15;7.00;26.60
47532;DHT22;33273;52.254;7.988;2023-04-03T17:07:41;7.00;27.00
47532;DHT22;33273;52.254;7.988;2023-04-03T17:10:07;6.90;27.20
47532;DHT22;33273;52.254;7.988;2023-04-03T17:12:36;6.90;27.20
47532;DHT22;33273;52.254;7.988;2023-04-03T17:15:04;6.90;27.40
47532;DHT22;33273;52.254;7.988;2023-04-03T17:17:30;6.90;27.80
47532;DHT22;33273;52.254;7.988;2023-04-03T17:19:57;6.90;26.90
47532;DHT22;33273;52.254;7.988;2023-04-03T17:22:25;6.90;26.80
47532;DHT22;33273;52.254;7.988;2023-04-03T17:24:51;6.80;26.60
47532;DHT22;33273;52.254;7.988;2023-04-03T17:27:20;6.80;26.90
47532;DHT22;33273;52.254;7.988;2023-04-03T17:29:46;6.80;26.90
47532;DHT22;33273;52.254;7.988;2023-04-03T17:32:12;6.70;27.50
47532;DHT22;33273;52.254;7.988;2023-04-03T17:34:39;6.70;27.60
47532;DHT22;33273;52.254;7.988;2023-04-03T17:37:05;6.70;27.60
47532;DHT22;33273;52.254;7.988;2023-04-03T17:39:31;6.70;27.60
47532;DHT22;33273;52.254;7.988;2023-04-03T17:41:57;6.60;28.30
47532;DHT22;33273;52.254;7.988;2023-04-03T17:44:23;6.60;27.50
47532;DHT22;33273;52.254;7.988;2023-04-03T17:46:49;6.60;27.00
47532;DHT22;33273;52.254;7.988;2023-04-03T17:49:15;6.60;27.10